createdAt,value
2019-05-05T00:01:39.488Z,-0.93
2019-05-05T00:04:36.750Z,-0.72
2019-05-05T00:07:05.960Z,-0.86
2019-05-05T00:09:34.913Z,-0.88
2019-05-05T00:12:21.828Z,-0.57
2019-05-05T00:15:02.302Z,-0.48
2019-05-05T00:17:31.715Z,-0.61
2019-05-05T00:20:00.378Z,-0.90
2019-05-05T00:22:29.061Z,-1.08
2019-05-05T00:24:57.725Z,-1.01
2019-05-05T00:27:26.483Z,-1.10
2019-05-05T00:29:55.181Z,-1.32
2019-05-05T00:32:24.535Z,-1.36
2019-05-05T00:34:55.163Z,-1.28
2019-05-05T00:37:25.675Z,-1.35
2019-05-05T00:39:54.636Z,-1.44
2019-05-05T00:42:24.774Z,-1.40
2019-05-05T00:44:54.898Z,-1.53
2019-05-05T00:47:54.843Z,-1.35
2019-05-05T00:50:25.259Z,-1.37
2019-05-05T00:52:55.098Z,-1.47
2019-05-05T00:55:24.467Z,-1.62
2019-05-05T00:57:54.848Z,-1.41
2019-05-05T01:00:39.202Z,-1.34
2019-05-05T01:03:08.032Z,-1.29
2019-05-05T01:05:44.900Z,-1.27
2019-05-05T01:08:17.209Z,-1.49
2019-05-05T01:10:45.884Z,-1.61
2019-05-05T01:13:15.220Z,-1.76
2019-05-05T01:15:44.843Z,-1.42
2019-05-05T01:18:15.254Z,-1.47
2019-05-05T01:20:44.906Z,-1.42
2019-05-05T01:23:15.012Z,-1.48
2019-05-05T01:25:46.119Z,-1.37
2019-05-05T01:28:14.529Z,-1.44
2019-05-05T01:30:45.429Z,-1.41
2019-05-05T01:33:20.446Z,-1.29
2019-05-05T01:35:49.123Z,-1.30
2019-05-05T01:38:24.860Z,-1.10
2019-05-05T01:41:05.824Z,-1.15
2019-05-05T01:43:34.729Z,-1.32
2019-05-05T01:46:05.027Z,-1.42
2019-05-05T01:48:35.096Z,-1.48
2019-05-05T01:51:05.011Z,-1.78
2019-05-05T01:53:34.969Z,-1.82
2019-05-05T01:56:04.853Z,-1.92
2019-05-05T01:58:34.921Z,-2.06
2019-05-05T02:01:04.990Z,-1.73
2019-05-05T02:03:35.051Z,-1.66
2019-05-05T02:06:05.269Z,-1.64
2019-05-05T02:08:34.903Z,-1.49
2019-05-05T02:11:05.169Z,-1.36
2019-05-05T02:13:34.663Z,-1.41
2019-05-05T02:16:04.596Z,-1.30
2019-05-05T02:18:34.571Z,-1.24
2019-05-05T02:21:06.158Z,-1.18
2019-05-05T02:23:36.101Z,-1.30
2019-05-05T02:26:05.985Z,-1.29
2019-05-05T02:28:45.314Z,-1.22
2019-05-05T02:31:25.519Z,-1.28
2019-05-05T02:33:56.782Z,-1.44
2019-05-05T02:36:25.784Z,-1.54
2019-05-05T02:38:56.701Z,-1.45
2019-05-05T02:41:25.651Z,-1.53
2019-05-05T02:43:56.001Z,-1.72
2019-05-05T02:46:44.755Z,-1.63
2019-05-05T02:49:15.288Z,-1.40
2019-05-05T02:51:45.287Z,-1.33
2019-05-05T02:54:15.326Z,-1.26
2019-05-05T02:56:46.826Z,-1.39
2019-05-05T02:59:26.642Z,-1.34
2019-05-05T03:02:09.129Z,-1.43
2019-05-05T03:04:38.180Z,-1.49
2019-05-05T03:07:09.243Z,-1.48
2019-05-05T03:09:38.863Z,-1.65
2019-05-05T03:12:11.100Z,-1.53
2019-05-05T03:14:42.008Z,-1.42
2019-05-05T03:17:14.298Z,-1.50
2019-05-05T03:19:44.549Z,-1.49
2019-05-05T03:22:14.358Z,-1.35
2019-05-05T03:24:44.640Z,-1.56
2019-05-05T03:27:14.447Z,-1.58
2019-05-05T03:29:44.173Z,-1.66
2019-05-05T03:32:16.024Z,-1.56
2019-05-05T03:34:44.600Z,-1.60
2019-05-05T03:37:14.646Z,-1.55
2019-05-05T03:39:48.416Z,-1.40
2019-05-05T03:42:33.850Z,-1.23
2019-05-05T03:45:28.042Z,-1.09
2019-05-05T03:47:57.412Z,-1.05
2019-05-05T03:50:26.432Z,-0.83
2019-05-05T03:52:55.386Z,-0.60
2019-05-05T03:55:24.496Z,-0.53
2019-05-05T03:57:53.849Z,-0.36
2019-05-05T04:00:43.312Z,-0.31
2019-05-05T04:03:12.098Z,-0.20
2019-05-05T04:05:53.799Z,-0.03
2019-05-05T04:08:23.482Z,0.23
2019-05-05T04:10:54.474Z,0.35
2019-05-05T04:13:24.293Z,0.40
2019-05-05T04:16:10.884Z,0.39
2019-05-05T04:18:48.679Z,0.25
2019-05-05T04:21:30.270Z,0.27
2019-05-05T04:23:47.760Z,0.23
2019-05-05T04:26:16.461Z,0.34
2019-05-05T04:28:45.124Z,0.51
2019-05-05T04:31:13.839Z,0.60
2019-05-05T04:33:44.460Z,0.74
2019-05-05T04:36:14.490Z,0.75
2019-05-05T04:38:43.951Z,0.87
2019-05-05T04:41:14.064Z,0.87
2019-05-05T04:43:44.202Z,0.81
2019-05-05T04:46:14.036Z,0.97
2019-05-05T04:48:48.815Z,1.00
2019-05-05T04:51:21.373Z,1.01
2019-05-05T04:54:27.282Z,1.04
2019-05-05T04:56:56.070Z,0.98
2019-05-05T04:59:24.814Z,0.93
2019-05-05T05:01:56.387Z,0.81
2019-05-05T05:04:48.624Z,0.71
2019-05-05T05:07:18.293Z,0.89
2019-05-05T05:09:46.965Z,1.10
2019-05-05T05:12:15.654Z,1.18
2019-05-05T05:14:44.314Z,1.23
2019-05-05T05:17:19.787Z,1.27
2019-05-05T05:19:48.671Z,1.51
2019-05-05T05:22:17.338Z,1.67
2019-05-05T05:24:46.020Z,2.38
2019-05-05T05:27:14.688Z,2.85
2019-05-05T05:29:43.793Z,3.04
2019-05-05T05:32:12.555Z,3.06
2019-05-05T05:34:41.221Z,3.24
2019-05-05T05:37:09.921Z,3.36
2019-05-05T05:39:47.560Z,3.43
2019-05-05T05:42:16.244Z,3.53
2019-05-05T05:44:53.562Z,3.86
2019-05-05T05:47:29.976Z,4.10
2019-05-05T05:50:17.683Z,4.18
2019-05-05T05:52:46.373Z,4.61
2019-05-05T05:55:15.086Z,4.80
2019-05-05T05:57:43.982Z,5.42
2019-05-05T06:00:14.515Z,5.64
2019-05-05T06:02:43.960Z,5.97
2019-05-05T06:05:14.782Z,6.09
2019-05-05T06:07:44.252Z,6.17
2019-05-05T06:10:23.697Z,6.57
2019-05-05T06:12:45.021Z,6.66
2019-05-05T06:15:14.336Z,6.30
2019-05-05T06:17:43.496Z,6.44
2019-05-05T06:20:14.405Z,6.29
2019-05-05T06:22:44.664Z,5.96
2019-05-05T06:25:15.969Z,6.13
2019-05-05T06:27:44.564Z,6.41
2019-05-05T06:30:13.888Z,6.29
2019-05-05T06:32:43.696Z,5.66
2019-05-05T06:35:13.853Z,5.02
2019-05-05T06:37:54.263Z,4.78
2019-05-05T06:40:31.101Z,4.73
2019-05-05T06:43:13.967Z,4.81
2019-05-05T06:45:47.648Z,4.86
2019-05-05T06:48:16.332Z,5.05
2019-05-05T06:50:44.989Z,5.31
2019-05-05T06:53:13.713Z,5.87
2019-05-05T06:55:44.313Z,6.80
2019-05-05T06:58:13.651Z,7.52
2019-05-05T07:00:44.089Z,8.09
2019-05-05T07:03:13.930Z,8.63
2019-05-05T07:05:43.688Z,8.33
2019-05-05T07:08:13.844Z,6.98
2019-05-05T07:10:44.437Z,6.08
2019-05-05T07:13:14.030Z,5.66
2019-05-05T07:15:43.759Z,5.93
2019-05-05T07:18:14.242Z,6.22
2019-05-05T07:20:44.078Z,6.56
2019-05-05T07:23:14.465Z,6.94
2019-05-05T07:25:45.859Z,8.12
2019-05-05T07:28:14.677Z,9.47
2019-05-05T07:30:44.230Z,9.52
2019-05-05T07:33:14.897Z,8.65
2019-05-05T07:35:56.763Z,7.80
2019-05-05T07:38:21.624Z,7.96
2019-05-05T07:40:50.283Z,7.93
2019-05-05T07:43:18.972Z,8.37
2019-05-05T07:45:47.632Z,8.15
2019-05-05T07:48:16.292Z,8.43
2019-05-05T07:50:58.150Z,9.20
2019-05-05T07:53:17.848Z,9.53
2019-05-05T07:55:45.783Z,9.19
2019-05-05T07:58:14.433Z,9.19
2019-05-05T08:00:43.776Z,8.90
2019-05-05T08:03:14.382Z,9.68
2019-05-05T08:05:44.198Z,9.14
2019-05-05T08:08:13.930Z,8.12
2019-05-05T08:10:43.762Z,7.62
2019-05-05T08:13:14.077Z,8.13
2019-05-05T08:15:56.824Z,8.47
2019-05-05T08:18:27.793Z,8.85
2019-05-05T08:20:58.958Z,9.01
2019-05-05T08:23:39.760Z,8.79
2019-05-05T08:26:14.288Z,8.66
2019-05-05T08:28:56.450Z,8.90
2019-05-05T08:31:44.337Z,9.40
2019-05-05T08:34:14.271Z,8.84
2019-05-05T08:36:44.648Z,9.13
2019-05-05T08:39:14.252Z,9.14
2019-05-05T08:41:45.336Z,9.11
2019-05-05T08:44:14.256Z,9.84
2019-05-05T08:46:44.594Z,10.91
2019-05-05T08:49:13.778Z,10.77
2019-05-05T08:51:44.275Z,11.00
2019-05-05T08:54:14.342Z,9.91
2019-05-05T08:56:44.754Z,9.90
2019-05-05T08:59:14.272Z,10.36
2019-05-05T09:01:44.868Z,11.09
2019-05-05T09:04:14.261Z,12.56
2019-05-05T09:06:43.712Z,14.41
2019-05-05T09:09:14.423Z,15.20
2019-05-05T09:11:43.774Z,15.51
2019-05-05T09:14:14.837Z,15.40
2019-05-05T09:16:44.787Z,12.48
2019-05-05T09:19:17.440Z,11.85
2019-05-05T09:21:46.184Z,11.88
2019-05-05T09:24:34.069Z,12.59
2019-05-05T09:27:20.997Z,14.70
2019-05-05T09:29:49.700Z,14.84
2019-05-05T09:32:18.374Z,11.81
2019-05-05T09:34:47.170Z,11.13
2019-05-05T09:37:15.830Z,10.41
2019-05-05T09:39:44.569Z,10.61
2019-05-05T09:42:14.476Z,10.71
2019-05-05T09:44:43.892Z,10.43
2019-05-05T09:47:13.685Z,10.74
2019-05-05T09:49:44.565Z,11.36
2019-05-05T09:52:13.950Z,11.04
2019-05-05T09:54:43.893Z,10.72
2019-05-05T09:57:14.554Z,11.14
2019-05-05T09:59:44.125Z,11.37
2019-05-05T10:02:13.102Z,11.16
2019-05-05T10:04:43.912Z,9.95
2019-05-05T10:07:13.707Z,9.31
2019-05-05T10:09:43.806Z,8.94
2019-05-05T10:12:12.652Z,9.04
2019-05-05T10:14:41.300Z,9.30
2019-05-05T10:17:09.987Z,9.41
2019-05-05T10:19:38.670Z,9.65
2019-05-05T10:22:07.374Z,9.89
2019-05-05T10:24:44.218Z,9.57
2019-05-05T10:27:12.456Z,9.76
2019-05-05T10:29:41.116Z,9.84
2019-05-05T10:32:09.819Z,10.50
2019-05-05T10:34:38.555Z,10.72
2019-05-05T10:37:07.293Z,10.55
2019-05-05T10:39:40.267Z,10.30
2019-05-05T10:42:08.941Z,10.32
2019-05-05T10:44:37.601Z,10.39
2019-05-05T10:47:06.296Z,11.24
2019-05-05T10:49:34.981Z,13.67
2019-05-05T10:52:03.953Z,14.67
2019-05-05T10:54:43.284Z,15.44
2019-05-05T10:57:04.036Z,14.60
2019-05-05T10:59:34.345Z,13.62
2019-05-05T11:02:05.011Z,13.69
2019-05-05T11:04:34.031Z,14.84
2019-05-05T11:07:04.176Z,15.06
2019-05-05T11:09:33.878Z,15.98
2019-05-05T11:12:02.569Z,18.16
2019-05-05T11:14:31.224Z,17.68
2019-05-05T11:17:00.065Z,17.33
2019-05-05T11:19:28.798Z,16.36
2019-05-05T11:21:57.486Z,18.14
2019-05-05T11:24:26.228Z,16.11
2019-05-05T11:26:54.900Z,14.34
2019-05-05T11:29:24.166Z,13.02
2019-05-05T11:31:53.279Z,13.32
2019-05-05T11:34:25.709Z,13.40
2019-05-05T11:37:01.112Z,13.39
2019-05-05T11:39:29.777Z,13.92
2019-05-05T11:41:58.577Z,14.16
2019-05-05T11:44:27.245Z,14.38
2019-05-05T11:46:55.932Z,15.44
2019-05-05T11:49:24.708Z,15.11
2019-05-05T11:51:54.225Z,14.18
2019-05-05T11:54:24.558Z,14.14
2019-05-05T11:56:54.054Z,13.95
2019-05-05T11:59:23.817Z,13.46
2019-05-05T12:01:55.035Z,13.33
2019-05-05T12:04:23.999Z,14.29
2019-05-05T12:06:52.850Z,14.82
2019-05-05T12:09:27.575Z,14.83
2019-05-05T12:11:56.242Z,14.26
2019-05-05T12:14:27.449Z,12.94
2019-05-05T12:16:56.141Z,12.99
2019-05-05T12:19:24.803Z,13.23
2019-05-05T12:21:54.807Z,12.79
2019-05-05T12:24:27.773Z,12.67
2019-05-05T12:27:18.691Z,12.75
2019-05-05T12:29:54.588Z,13.36
2019-05-05T12:32:24.117Z,16.34
2019-05-05T12:34:53.799Z,16.88
2019-05-05T12:37:23.680Z,16.65
2019-05-05T12:39:54.419Z,13.92
2019-05-05T12:42:24.195Z,12.97
2019-05-05T12:45:00.985Z,13.16
2019-05-05T12:47:46.854Z,14.81
2019-05-05T12:50:15.874Z,17.43
2019-05-05T12:52:44.540Z,21.59
2019-05-05T12:55:14.324Z,21.37
2019-05-05T12:57:43.592Z,17.06
2019-05-05T13:00:14.609Z,14.10
2019-05-05T13:02:44.212Z,12.65
2019-05-05T13:05:14.503Z,13.03
2019-05-05T13:07:44.159Z,13.31
2019-05-05T13:10:15.916Z,13.46
2019-05-05T13:12:44.608Z,13.22
2019-05-05T13:15:14.353Z,12.56
2019-05-05T13:17:43.794Z,12.86
2019-05-05T13:20:34.812Z,13.44
2019-05-05T13:23:28.576Z,12.98
2019-05-05T13:26:04.238Z,12.92
2019-05-05T13:28:34.301Z,12.60
2019-05-05T13:31:04.700Z,11.82
2019-05-05T13:33:34.543Z,11.64
2019-05-05T13:36:04.336Z,12.16
2019-05-05T13:38:34.305Z,12.02
2019-05-05T13:41:03.810Z,11.36
2019-05-05T13:43:34.230Z,11.28
2019-05-05T13:46:24.561Z,11.34
2019-05-05T13:48:53.959Z,11.15
2019-05-05T13:51:24.039Z,11.11
2019-05-05T13:53:53.960Z,10.32
2019-05-05T13:56:24.494Z,10.47
2019-05-05T13:58:53.307Z,10.85
2019-05-05T14:01:23.748Z,11.53
2019-05-05T14:03:54.177Z,11.83
2019-05-05T14:06:24.266Z,12.13
2019-05-05T14:08:54.087Z,12.17
2019-05-05T14:11:24.710Z,12.88
2019-05-05T14:13:53.434Z,13.13
2019-05-05T14:16:22.126Z,13.56
2019-05-05T14:18:50.792Z,14.72
2019-05-05T14:21:19.476Z,16.44
2019-05-05T14:24:00.607Z,19.09
2019-05-05T14:26:32.122Z,20.46
2019-05-05T14:28:59.665Z,21.35
2019-05-05T14:31:33.812Z,20.43
2019-05-05T14:34:04.519Z,21.43
2019-05-05T14:36:48.033Z,21.85
2019-05-05T14:39:16.763Z,17.79
2019-05-05T14:41:45.387Z,16.91
2019-05-05T14:44:14.152Z,14.28
2019-05-05T14:46:44.571Z,15.94
2019-05-05T14:49:14.079Z,15.90
2019-05-05T14:51:44.671Z,15.60
2019-05-05T14:54:14.847Z,15.34
2019-05-05T14:56:44.157Z,16.63
2019-05-05T14:59:14.195Z,15.53
2019-05-05T15:01:44.747Z,16.03
2019-05-05T15:04:15.242Z,16.39
2019-05-05T15:07:05.896Z,15.23
2019-05-05T15:09:49.742Z,12.94
2019-05-05T15:12:23.794Z,11.21
2019-05-05T15:14:54.641Z,10.85
2019-05-05T15:17:24.648Z,10.73
2019-05-05T15:19:54.108Z,10.91
2019-05-05T15:22:24.036Z,12.18
2019-05-05T15:24:53.659Z,13.49
2019-05-05T15:27:24.243Z,14.14
2019-05-05T15:29:54.264Z,15.20
2019-05-05T15:32:24.028Z,16.56
2019-05-05T15:34:54.537Z,15.58
2019-05-05T15:37:23.795Z,13.89
2019-05-05T15:39:53.635Z,13.63
2019-05-05T15:42:22.624Z,15.13
2019-05-05T15:44:51.289Z,17.54
2019-05-05T15:47:19.947Z,19.41
2019-05-05T15:49:48.658Z,21.01
2019-05-05T15:52:20.075Z,19.80
2019-05-05T15:54:47.788Z,18.60
2019-05-05T15:57:18.064Z,18.51
2019-05-05T15:59:47.048Z,18.03
2019-05-05T16:02:15.711Z,19.58
2019-05-05T16:04:44.380Z,21.01
2019-05-05T16:07:13.825Z,18.94
2019-05-05T16:09:44.384Z,17.94
2019-05-05T16:12:14.380Z,17.63
2019-05-05T16:14:54.344Z,18.35
2019-05-05T16:17:43.868Z,17.57
2019-05-05T16:20:16.673Z,18.20
2019-05-05T16:23:16.500Z,17.73
2019-05-05T16:25:46.642Z,17.73
2019-05-05T16:28:15.588Z,17.28
2019-05-05T16:30:44.611Z,16.10
2019-05-05T16:33:13.800Z,15.12
2019-05-05T16:35:43.750Z,16.74
2019-05-05T16:38:14.745Z,16.38
2019-05-05T16:40:44.443Z,16.95
2019-05-05T16:43:14.062Z,17.24
2019-05-05T16:45:44.438Z,15.41
2019-05-05T16:48:13.225Z,15.71
2019-05-05T16:50:44.073Z,16.83
2019-05-05T16:53:31.389Z,15.60
2019-05-05T16:56:00.164Z,15.73
2019-05-05T16:58:28.821Z,14.31
2019-05-05T17:00:57.488Z,15.15
2019-05-05T17:03:26.181Z,14.47
2019-05-05T17:05:56.624Z,13.46
2019-05-05T17:08:25.227Z,14.23
2019-05-05T17:10:54.008Z,15.62
2019-05-05T17:13:44.048Z,16.32
2019-05-05T17:16:21.935Z,16.99
2019-05-05T17:19:13.922Z,15.54
2019-05-05T17:22:00.518Z,15.23
2019-05-05T17:24:29.224Z,14.40
2019-05-05T17:26:57.973Z,13.76
2019-05-05T17:29:26.979Z,13.00
2019-05-05T17:31:55.656Z,13.98
2019-05-05T17:34:24.807Z,14.23
2019-05-05T17:36:53.709Z,13.04
2019-05-05T17:39:23.793Z,11.86
2019-05-05T17:42:14.677Z,11.12
2019-05-05T17:44:53.669Z,10.76
2019-05-05T17:47:27.039Z,10.50
2019-05-05T17:50:17.783Z,10.24
2019-05-05T17:53:03.108Z,9.97
2019-05-05T17:55:40.023Z,9.77
2019-05-05T17:58:08.717Z,9.64
2019-05-05T18:00:47.101Z,9.55
2019-05-05T18:03:15.960Z,9.62
2019-05-05T18:06:09.743Z,9.83
2019-05-05T18:08:41.081Z,10.39
2019-05-05T18:11:16.928Z,11.10
2019-05-05T18:13:49.625Z,11.12
2019-05-05T18:16:19.487Z,11.05
2019-05-05T18:18:48.189Z,11.08
2019-05-05T18:21:16.848Z,11.03
2019-05-05T18:23:45.518Z,10.64
2019-05-05T18:26:14.211Z,9.98
2019-05-05T18:28:44.804Z,9.33
2019-05-05T18:31:13.881Z,8.87
2019-05-05T18:33:42.816Z,8.31
2019-05-05T18:36:11.485Z,7.88
2019-05-05T18:38:40.176Z,7.64
2019-05-05T18:41:20.368Z,7.38
2019-05-05T18:43:55.236Z,7.11
2019-05-05T18:46:24.449Z,6.80
2019-05-05T18:48:54.501Z,6.93
2019-05-05T18:51:24.137Z,6.79
2019-05-05T18:53:54.983Z,6.55
2019-05-05T18:56:23.793Z,6.54
2019-05-05T18:58:54.250Z,6.42
2019-05-05T19:01:34.041Z,6.29
2019-05-05T19:04:34.747Z,6.42
2019-05-05T19:07:14.503Z,6.18
2019-05-05T19:09:51.824Z,6.22
2019-05-05T19:12:13.897Z,6.39
2019-05-05T19:14:44.224Z,6.66
2019-05-05T19:17:14.182Z,6.67
2019-05-05T19:19:46.958Z,6.66
2019-05-05T19:22:15.825Z,6.45
2019-05-05T19:24:44.487Z,6.16
2019-05-05T19:27:14.170Z,6.11
2019-05-05T19:29:45.981Z,6.19
2019-05-05T19:32:13.458Z,6.10
2019-05-05T19:34:43.900Z,6.00
2019-05-05T19:37:13.967Z,6.01
2019-05-05T19:39:42.817Z,5.94
2019-05-05T19:42:11.472Z,5.75
2019-05-05T19:44:40.134Z,5.72
2019-05-05T19:47:17.978Z,5.39
2019-05-05T19:49:58.916Z,5.03
2019-05-05T19:52:27.591Z,4.76
2019-05-05T19:54:56.281Z,4.53
2019-05-05T19:57:24.946Z,4.32
2019-05-05T19:59:54.273Z,3.95
2019-05-05T20:02:23.666Z,3.63
2019-05-05T20:04:53.665Z,3.63
2019-05-05T20:07:24.666Z,3.64
2019-05-05T20:09:54.337Z,3.58
2019-05-05T20:12:23.134Z,3.38
2019-05-05T20:14:51.787Z,3.11
2019-05-05T20:17:39.515Z,2.88
2019-05-05T20:20:09.210Z,2.72
2019-05-05T20:22:37.875Z,2.51
2019-05-05T20:25:07.931Z,2.49
2019-05-05T20:27:36.590Z,2.38
2019-05-05T20:30:06.569Z,2.16
2019-05-05T20:32:44.463Z,1.98
2019-05-05T20:35:24.064Z,1.81
2019-05-05T20:37:57.803Z,1.98
2019-05-05T20:40:29.787Z,1.98
2019-05-05T20:42:58.449Z,1.99
2019-05-05T20:45:29.325Z,1.69
2019-05-05T20:47:58.363Z,1.65
2019-05-05T20:50:27.033Z,1.49
2019-05-05T20:52:55.719Z,1.39
2019-05-05T20:55:25.886Z,1.44
2019-05-05T20:57:54.816Z,1.27
2019-05-05T21:00:24.695Z,1.36
2019-05-05T21:02:53.883Z,1.40
2019-05-05T21:05:24.160Z,1.69
2019-05-05T21:07:52.970Z,1.85
2019-05-05T21:10:23.987Z,2.10
2019-05-05T21:12:54.230Z,2.02
2019-05-05T21:15:24.487Z,2.13
2019-05-05T21:17:54.097Z,2.27
2019-05-05T21:20:24.122Z,2.57
2019-05-05T21:22:58.366Z,2.57
2019-05-05T21:25:35.288Z,2.58
2019-05-05T21:28:04.091Z,2.63
2019-05-05T21:30:33.688Z,2.74
2019-05-05T21:33:04.471Z,2.81
2019-05-05T21:35:34.912Z,2.92
2019-05-05T21:38:04.719Z,3.05
2019-05-05T21:40:34.642Z,3.30
2019-05-05T21:43:04.980Z,3.46
2019-05-05T21:45:34.665Z,3.56
2019-05-05T21:48:04.314Z,3.61
2019-05-05T21:50:38.564Z,3.67
2019-05-05T21:53:24.505Z,3.85
2019-05-05T21:56:27.182Z,3.97
2019-05-05T21:58:56.924Z,4.09
2019-05-05T22:01:27.877Z,4.15
2019-05-05T22:03:56.990Z,4.21
2019-05-05T22:06:25.792Z,4.29
2019-05-05T22:08:54.448Z,4.19
2019-05-05T22:11:24.275Z,4.30
2019-05-05T22:13:54.051Z,4.43
2019-05-05T22:16:22.947Z,4.37
2019-05-05T22:18:53.968Z,4.32
2019-05-05T22:21:28.457Z,4.42
2019-05-05T22:24:16.778Z,4.34
2019-05-05T22:26:45.964Z,4.27
2019-05-05T22:29:16.923Z,4.12
2019-05-05T22:31:45.333Z,3.89
2019-05-05T22:34:14.711Z,3.88
2019-05-05T22:36:44.883Z,3.86
2019-05-05T22:39:16.520Z,4.17
2019-05-05T22:41:44.679Z,4.36
2019-05-05T22:44:14.005Z,4.55
2019-05-05T22:46:43.005Z,4.64
2019-05-05T22:49:11.829Z,5.16
2019-05-05T22:51:40.577Z,5.40
2019-05-05T22:54:09.605Z,5.50
2019-05-05T22:56:38.365Z,5.59
2019-05-05T22:59:07.417Z,5.68
2019-05-05T23:01:36.082Z,5.53
2019-05-05T23:04:19.548Z,5.56
2019-05-05T23:06:51.498Z,5.46
2019-05-05T23:09:20.102Z,5.28
2019-05-05T23:11:48.793Z,5.30
2019-05-05T23:14:29.793Z,5.24
2019-05-05T23:17:08.687Z,5.23
2019-05-05T23:19:44.486Z,5.06
2019-05-05T23:22:24.059Z,4.95
2019-05-05T23:24:57.936Z,5.00
2019-05-05T23:27:46.845Z,5.03
2019-05-05T23:30:16.126Z,4.99
2019-05-05T23:32:45.031Z,4.92
2019-05-05T23:35:14.316Z,4.92
2019-05-05T23:37:44.849Z,4.87
2019-05-05T23:40:20.673Z,4.79
2019-05-05T23:42:49.401Z,4.69
2019-05-05T23:45:18.460Z,4.56
2019-05-05T23:47:47.321Z,4.48
2019-05-05T23:50:16.128Z,4.44
2019-05-05T23:52:44.838Z,4.38
2019-05-05T23:55:14.325Z,4.27
2019-05-05T23:57:43.727Z,4.23
